Time;durP1;ratioP1;P1;durP2;ratioP2;P2;SDS_P1;SDS_P2;PMS_P1;PMS_P2;Temp;Humidity;BMP_temperature;BMP_pressure;BME280_temperature;BME280_humidity;BME280_pressure;Samples;Min_cycle;Max_cycle;Signal;HPM_P1;HPM_P2
2022/11/02 00:02:19;;;;;;;13.70;2.22;;;11.60;99.90;;;;;;4795287;29;20054;-78
2022/11/02 00:04:45;;;;;;;10.90;1.95;;;11.60;99.90;;;;;;4777961;29;20077;-78
2022/11/02 00:07:10;;;;;;;8.40;1.90;;;11.60;99.90;;;;;;4796269;29;20058;-79
2022/11/02 00:09:36;;;;;;;8.15;1.73;;;11.60;99.90;;;;;;4780133;29;21764;-78
2022/11/02 00:12:02;;;;;;;3.92;1.20;;;11.60;99.90;;;;;;4768334;29;20050;-78
2022/11/02 00:14:28;;;;;;;6.20;1.45;;;11.60;99.90;;;;;;4781417;29;20050;-79
2022/11/02 00:16:54;;;;;;;8.32;2.10;;;11.60;99.90;;;;;;4794735;29;20050;-79
2022/11/02 00:19:20;;;;;;;5.43;1.52;;;11.60;99.90;;;;;;4766469;29;20063;-78
2022/11/02 00:21:45;;;;;;;8.77;1.98;;;11.60;99.90;;;;;;4795111;29;20073;-78
2022/11/02 00:24:12;;;;;;;9.32;2.10;;;11.70;99.90;;;;;;4778294;29;20062;-78
2022/11/02 00:26:37;;;;;;;6.97;1.80;;;11.70;99.90;;;;;;4811847;29;20907;-78
2022/11/02 00:29:07;;;;;;;4.93;1.80;;;11.80;99.90;;;;;;4783365;29;20054;-77
2022/11/02 00:31:32;;;;;;;9.13;1.73;;;11.70;99.90;;;;;;4779830;29;20110;-79
2022/11/02 00:33:58;;;;;;;8.10;1.90;;;11.80;99.90;;;;;;4809844;29;20058;-79
2022/11/02 00:36:24;;;;;;;10.90;2.25;;;12.10;99.90;;;;;;4810562;29;20065;-79
2022/11/02 00:38:50;;;;;;;7.32;1.70;;;11.80;99.90;;;;;;4781664;29;20058;-79
2022/11/02 00:41:20;;;;;;;7.22;1.85;;;11.90;99.90;;;;;;4793904;29;20054;-79
2022/11/02 00:43:45;;;;;;;8.00;1.70;;;11.80;99.90;;;;;;4779715;29;20059;-79
2022/11/02 00:46:11;;;;;;;5.20;1.73;;;11.80;99.90;;;;;;4767203;29;20053;-79
2022/11/02 00:48:37;;;;;;;7.03;1.92;;;11.70;99.90;;;;;;4751542;29;20058;-78
2022/11/02 00:51:02;;;;;;;4.53;1.40;;;11.80;99.90;;;;;;4766546;29;20449;-78
2022/11/02 00:53:28;;;;;;;6.53;1.50;;;11.70;99.90;;;;;;4778375;29;20076;-79
2022/11/02 00:55:54;;;;;;;10.50;1.70;;;11.70;99.90;;;;;;4780568;29;20102;-79
2022/11/02 00:58:20;;;;;;;5.43;1.55;;;11.70;99.90;;;;;;4765439;29;20070;-79
2022/11/02 01:00:45;;;;;;;3.45;1.50;;;11.70;99.90;;;;;;4779175;29;20051;-78
2022/11/02 01:03:11;;;;;;;4.63;1.48;;;11.70;99.90;;;;;;4793975;29;20129;-78
2022/11/02 01:05:37;;;;;;;10.40;2.00;;;11.80;99.90;;;;;;4767091;29;20061;-78
2022/11/02 01:08:03;;;;;;;5.65;1.40;;;11.80;99.90;;;;;;4793324;29;20054;-79
2022/11/02 01:10:29;;;;;;;6.00;2.15;;;11.80;99.90;;;;;;4777943;29;20061;-78
2022/11/02 01:12:54;;;;;;;8.30;1.60;;;11.70;99.90;;;;;;4794078;29;20525;-79
2022/11/02 01:15:20;;;;;;;8.98;1.67;;;11.80;99.90;;;;;;4779306;29;20053;-79
2022/11/02 01:17:46;;;;;;;6.93;1.50;;;11.70;99.90;;;;;;4795734;29;20066;-78
2022/11/02 01:20:12;;;;;;;6.97;2.03;;;11.70;99.90;;;;;;4765233;29;20046;-78
2022/11/02 01:22:37;;;;;;;8.50;1.73;;;11.70;99.90;;;;;;4779441;29;20114;-79
2022/11/02 01:25:03;;;;;;;6.03;1.60;;;11.70;99.90;;;;;;4764497;29;20042;-78
2022/11/02 01:27:29;;;;;;;5.93;1.52;;;11.70;99.90;;;;;;4796810;29;20046;-79
2022/11/02 01:29:55;;;;;;;10.15;1.58;;;11.70;99.90;;;;;;4790123;29;20073;-79
2022/11/02 01:32:21;;;;;;;5.78;1.60;;;11.60;99.90;;;;;;4806992;29;20055;-79
2022/11/02 01:34:47;;;;;;;9.10;2.35;;;11.60;99.90;;;;;;4786307;29;20050;-79
2022/11/02 01:37:13;;;;;;;6.97;1.92;;;11.60;99.90;;;;;;4794385;29;20050;-78
2022/11/02 01:39:38;;;;;;;7.95;2.10;;;11.60;99.90;;;;;;4793291;29;20061;-78
2022/11/02 01:42:17;;;;;;;7.05;1.45;;;11.60;99.90;;;;;;4780199;29;20158;-77
2022/11/02 01:44:43;;;;;;;5.65;1.40;;;11.60;99.90;;;;;;4779379;29;20048;-78
2022/11/02 01:47:25;;;;;;;6.18;1.35;;;11.60;99.90;;;;;;4751563;29;20054;-78
2022/11/02 01:50:01;;;;;;;3.53;1.33;;;11.50;99.90;;;;;;4780977;29;20057;-80
2022/11/02 01:52:34;;;;;;;6.45;1.45;;;11.50;99.90;;;;;;4780161;29;20081;-79
2022/11/02 01:55:09;;;;;;;3.65;1.10;;;11.50;99.90;;;;;;4795449;29;20116;-78
2022/11/02 01:57:36;;;;;;;4.15;1.10;;;11.40;99.90;;;;;;4796059;29;20064;-79
2022/11/02 02:00:09;;;;;;;9.60;1.33;;;11.40;99.90;;;;;;4779413;29;20065;-79
2022/11/02 02:02:41;;;;;;;8.40;1.38;;;11.40;99.90;;;;;;4793343;29;20054;-79
2022/11/02 02:05:09;;;;;;;6.85;1.33;;;11.40;99.90;;;;;;4795479;29;20120;-78
2022/11/02 02:07:38;;;;;;;7.50;1.42;;;11.40;99.90;;;;;;4780093;29;20632;-78
2022/11/02 02:10:05;;;;;;;4.63;1.50;;;11.30;99.90;;;;;;4779971;29;20057;-79
2022/11/02 02:12:33;;;;;;;5.65;1.25;;;11.30;99.90;;;;;;4778481;29;20055;-79
2022/11/02 02:14:59;;;;;;;5.32;1.45;;;11.30;99.90;;;;;;4793193;29;20050;-79
2022/11/02 02:17:37;;;;;;;6.88;1.65;;;11.20;99.90;;;;;;4794679;29;20057;-78
2022/11/02 02:20:03;;;;;;;6.85;1.40;;;11.20;99.90;;;;;;4790058;29;20785;-79
2022/11/02 02:22:57;;;;;;;8.27;1.70;;;11.20;99.90;;;;;;4775985;29;20182;-78
2022/11/02 02:25:41;;;;;;;10.57;1.40;;;11.20;99.90;;;;;;4799615;29;20057;-78
2022/11/02 02:28:18;;;;;;;5.45;1.25;;;11.20;99.90;;;;;;4771984;29;20058;-80
2022/11/02 02:30:55;;;;;;;4.53;1.20;;;11.20;99.90;;;;;;4786765;29;20512;-78
2022/11/02 02:33:31;;;;;;;5.00;1.00;;;11.20;99.90;;;;;;4774304;29;20046;-78
2022/11/02 02:35:59;;;;;;;;;;;11.20;99.90;;;;;;4774905;29;20519;-78
2022/11/02 02:38:46;;;;;;;7.10;1.38;;;11.20;99.90;;;;;;4776008;29;20066;-79
2022/11/02 02:41:28;;;;;;;6.95;1.40;;;11.20;99.90;;;;;;4789334;29;20042;-79
2022/11/02 02:43:56;;;;;;;6.28;1.33;;;11.30;99.90;;;;;;4790350;29;20092;-79
2022/11/02 02:46:29;;;;;;;7.28;1.38;;;11.30;99.90;;;;;;4775660;29;20115;-79
2022/11/02 02:48:56;;;;;;;11.50;2.38;;;11.30;99.90;;;;;;4772204;29;20146;-77
2022/11/02 02:51:28;;;;;;;12.63;2.42;;;11.40;99.90;;;;;;4775762;29;20061;-77
2022/11/02 02:54:02;;;;;;;8.10;1.90;;;11.40;99.90;;;;;;4773395;29;20117;-78
2022/11/02 02:56:34;;;;;;;7.55;1.48;;;11.30;99.90;;;;;;4776552;29;20050;-78
2022/11/02 02:59:21;;;;;;;7.88;1.52;;;11.30;99.90;;;;;;4787908;29;22019;-78
2022/11/02 03:01:47;;;;;;;4.20;1.80;;;11.30;99.90;;;;;;4789785;29;20111;-78
2022/11/02 03:04:14;;;;;;;8.23;1.80;;;11.20;99.90;;;;;;4788975;29;20049;-78
2022/11/02 03:06:48;;;;;;;8.07;1.65;;;11.20;99.90;;;;;;4791839;29;20062;-79
2022/11/02 03:09:26;;;;;;;13.60;1.92;;;11.20;99.90;;;;;;4787749;29;20058;-78
2022/11/02 03:12:05;;;;;;;6.88;1.58;;;11.20;99.90;;;;;;4776091;29;20050;-79
2022/11/02 03:14:58;;;;;;;6.60;1.40;;;11.10;99.90;;;;;;4788793;29;20141;-78
2022/11/02 03:17:54;;;;;;;5.70;1.33;;;11.10;99.90;;;;;;4774625;29;20707;-78
2022/11/02 03:20:44;;;;;;;8.17;1.40;;;11.10;99.90;;;;;;4775085;29;20542;-78
2022/11/02 03:23:28;;;;;;;11.10;1.63;;;11.10;99.90;;;;;;4775112;29;20058;-78
2022/11/02 03:25:57;;;;;;;7.97;1.63;;;11.10;99.90;;;;;;4791392;29;20066;-77
2022/11/02 03:28:51;;;;;;;6.90;1.88;;;11.10;99.90;;;;;;4791663;29;20047;-78
2022/11/02 03:31:54;;;;;;;8.52;2.30;;;11.10;99.90;;;;;;4779501;29;20074;-78
2022/11/02 03:34:46;;;;;;;9.63;2.25;;;11.20;99.90;;;;;;4790968;29;20173;-78
2022/11/02 03:37:18;;;;;;;12.48;1.80;;;11.10;99.90;;;;;;4789993;29;20054;-78
2022/11/02 03:39:55;;;;;;;13.27;2.75;;;11.20;99.90;;;;;;4791008;29;20606;-78
2022/11/02 03:42:26;;;;;;;14.82;2.40;;;11.20;99.90;;;;;;4789933;29;20053;-78
2022/11/02 03:45:01;;;;;;;13.70;2.13;;;11.20;99.90;;;;;;4802667;29;20051;-78
2022/11/02 03:47:32;;;;;;;11.35;2.05;;;11.20;99.90;;;;;;4777568;29;20136;-79
2022/11/02 03:50:01;;;;;;;9.40;1.70;;;11.20;99.90;;;;;;4793190;29;20063;-78
2022/11/02 03:52:30;;;;;;;11.95;2.28;;;11.10;99.90;;;;;;4792023;29;20050;-78
2022/11/02 03:55:51;;;;;;;8.93;1.73;;;11.10;99.90;;;;;;4779960;29;20098;-78
2022/11/02 03:58:17;;;;;;;7.75;1.45;;;11.00;99.90;;;;;;4774079;29;20174;-78
2022/11/02 04:00:51;;;;;;;10.48;2.30;;;11.00;99.90;;;;;;4767223;29;20496;-79
2022/11/02 04:03:19;;;;;;;7.90;1.63;;;11.10;99.90;;;;;;4779894;29;20078;-77
2022/11/02 04:05:45;;;;;;;8.73;1.95;;;11.10;99.90;;;;;;4790116;29;20425;-78
2022/11/02 04:08:19;;;;;;;8.77;2.40;;;11.10;99.90;;;;;;4792602;29;20054;-77
2022/11/02 04:16:15;;;;;;;8.25;1.80;;;11.10;99.90;;;;;;4788673;29;20059;-78
2022/11/02 04:21:27;;;;;;;7.53;1.80;;;11.00;99.90;;;;;;4793808;29;20469;-78
2022/11/02 04:26:37;;;;;;;14.23;2.50;;;11.00;99.90;;;;;;4766136;29;21494;-78
2022/11/02 04:29:03;;;;;;;11.50;1.98;;;11.00;99.90;;;;;;4789823;29;20061;-79
2022/11/02 04:31:29;;;;;;;11.15;1.90;;;11.00;99.90;;;;;;4776120;29;20555;-78
2022/11/02 04:33:57;;;;;;;13.15;2.42;;;11.00;99.90;;;;;;4778190;29;20054;-80
2022/11/02 04:36:23;;;;;;;9.68;1.95;;;11.00;99.90;;;;;;4760020;29;20054;-80
2022/11/02 04:38:49;;;;;;;10.15;2.03;;;11.00;99.90;;;;;;4789230;29;20097;-77
2022/11/02 04:44:04;;;;;;;12.18;2.75;;;11.20;99.90;;;;;;4791924;29;20150;-78
2022/11/02 04:46:32;;;;;;;10.85;2.10;;;11.30;99.90;;;;;;4791563;29;20108;-79
2022/11/02 04:48:58;;;;;;;9.30;2.00;;;11.30;99.90;;;;;;4791251;29;20141;-78
2022/11/02 04:51:26;;;;;;;12.10;2.22;;;11.40;99.90;;;;;;4792943;29;20070;-78
2022/11/02 04:53:53;;;;;;;12.27;2.22;;;11.50;99.90;;;;;;4792352;29;20063;-81
2022/11/02 04:56:20;;;;;;;10.82;2.00;;;11.50;99.90;;;;;;4792852;29;20789;-81
2022/11/02 04:58:51;;;;;;;9.18;1.75;;;11.50;99.90;;;;;;4775404;29;20797;-79
2022/11/02 05:01:18;;;;;;;12.05;2.05;;;11.50;99.90;;;;;;4791146;29;20050;-79
2022/11/02 05:03:48;;;;;;;14.13;2.20;;;11.60;99.90;;;;;;4791895;29;20051;-79
2022/11/02 05:06:14;;;;;;;12.80;1.90;;;11.70;99.90;;;;;;4777056;29;20115;-80
2022/11/02 05:08:40;;;;;;;15.50;2.58;;;11.30;99.90;;;;;;4776518;29;20417;-80
2022/11/02 05:11:06;;;;;;;12.90;2.38;;;11.80;99.90;;;;;;4790305;29;20086;-80
2022/11/02 05:13:32;;;;;;;13.52;2.35;;;11.80;99.90;;;;;;4779618;29;20046;-80
2022/11/02 05:15:59;;;;;;;10.45;2.03;;;11.90;99.90;;;;;;4791756;29;20508;-80
2022/11/02 05:18:26;;;;;;;13.35;2.58;;;11.90;99.90;;;;;;4776866;29;20170;-80
2022/11/02 05:20:54;;;;;;;7.38;1.80;;;11.90;99.90;;;;;;4763544;29;20063;-80
2022/11/02 05:23:21;;;;;;;7.72;1.98;;;11.90;99.90;;;;;;4776340;29;20160;-80
2022/11/02 05:26:01;;;;;;;8.38;1.83;;;11.90;99.90;;;;;;4773993;29;20074;-80
2022/11/02 05:28:28;;;;;;;9.82;2.30;;;12.00;99.90;;;;;;4775721;29;20046;-79
2022/11/02 05:30:56;;;;;;;9.27;2.17;;;11.90;99.90;;;;;;4774468;29;20116;-78
2022/11/02 05:33:22;;;;;;;14.25;2.40;;;11.90;99.90;;;;;;4806180;29;20051;-80
2022/11/02 05:35:48;;;;;;;12.75;2.40;;;11.90;99.90;;;;;;4776108;29;20051;-80
2022/11/02 05:38:13;;;;;;;10.93;2.67;;;11.90;99.90;;;;;;4776990;29;20576;-78
2022/11/02 05:40:39;;;;;;;12.48;2.17;;;11.90;99.90;;;;;;4787637;29;20406;-78
2022/11/02 05:43:09;;;;;;;7.38;2.00;;;11.90;99.90;;;;;;4761835;29;20078;-81
2022/11/02 05:45:35;;;;;;;8.70;2.45;;;12.00;99.90;;;;;;4785769;29;20187;-81
2022/11/02 05:48:02;;;;;;;10.15;2.70;;;12.00;99.90;;;;;;4793462;29;20059;-78
2022/11/02 05:50:29;;;;;;;15.48;2.33;;;12.00;99.90;;;;;;4789238;29;20059;-79
2022/11/02 05:52:55;;;;;;;9.57;2.33;;;12.80;99.90;;;;;;4777701;29;20055;-79
2022/11/02 05:55:20;;;;;;;9.20;1.80;;;12.10;99.90;;;;;;4792190;29;20512;-79
2022/11/02 05:57:51;;;;;;;7.05;1.67;;;12.10;99.90;;;;;;4789200;29;20202;-79
2022/11/02 06:00:17;;;;;;;8.60;1.98;;;12.00;99.90;;;;;;4787915;29;20055;-82
2022/11/02 06:02:43;;;;;;;9.52;1.80;;;12.00;99.90;;;;;;4750937;29;20055;-79
2022/11/02 06:05:08;;;;;;;7.78;1.90;;;12.10;99.90;;;;;;4745424;29;20170;-79
2022/11/02 06:07:34;;;;;;;11.40;2.20;;;12.00;99.90;;;;;;4761930;29;20058;-78
2022/11/02 06:10:01;;;;;;;9.60;1.83;;;11.90;99.90;;;;;;4761545;29;20059;-79
2022/11/02 06:12:27;;;;;;;12.90;2.10;;;11.60;99.90;;;;;;4773630;29;20065;-79
2022/11/02 06:14:52;;;;;;;10.60;1.90;;;11.40;99.90;;;;;;4745715;29;20051;-79
2022/11/02 06:17:18;;;;;;;12.80;2.38;;;11.20;99.90;;;;;;4790418;29;20051;-80
2022/11/02 06:19:44;;;;;;;8.68;2.03;;;11.10;99.90;;;;;;4773081;29;20642;-79
2022/11/02 06:22:10;;;;;;;10.63;2.13;;;11.10;99.90;;;;;;4805039;29;20054;-79
2022/11/02 06:24:36;;;;;;;13.60;2.17;;;11.10;99.90;;;;;;4775962;29;20139;-80
2022/11/02 06:27:01;;;;;;;9.65;2.45;;;11.20;99.90;;;;;;4774385;29;20051;-79
2022/11/02 06:29:27;;;;;;;12.23;3.13;;;11.30;99.90;;;;;;4775642;29;20063;-79
2022/11/02 06:31:53;;;;;;;8.27;1.92;;;11.40;99.90;;;;;;4775113;29;20090;-79
2022/11/02 06:34:18;;;;;;;10.15;1.90;;;11.40;99.90;;;;;;4775816;29;20050;-79
2022/11/02 06:36:44;;;;;;;8.50;1.80;;;11.50;99.90;;;;;;4773917;29;20051;-79
2022/11/02 06:39:10;;;;;;;5.65;2.03;;;11.50;99.90;;;;;;4774956;29;20062;-79
2022/11/02 06:41:35;;;;;;;6.95;1.75;;;11.60;99.90;;;;;;4773944;29;20059;-77
2022/11/02 06:44:01;;;;;;;9.98;2.08;;;11.60;99.90;;;;;;4773708;29;20047;-80
2022/11/02 06:46:27;;;;;;;5.97;1.80;;;11.60;99.90;;;;;;4775286;29;20108;-78
2022/11/02 06:48:52;;;;;;;7.88;1.70;;;11.60;99.90;;;;;;4774041;29;20516;-79
2022/11/02 06:51:18;;;;;;;6.25;1.63;;;11.60;99.90;;;;;;4804412;29;20057;-77
2022/11/02 06:53:44;;;;;;;6.90;1.63;;;11.70;99.90;;;;;;4776933;29;20086;-78
2022/11/02 06:56:11;;;;;;;7.28;1.50;;;11.70;99.90;;;;;;4790121;29;20081;-79
2022/11/02 06:58:36;;;;;;;8.88;1.58;;;11.70;99.90;;;;;;4792180;29;20055;-78
2022/11/02 07:01:08;;;;;;;10.35;1.75;;;11.70;99.90;;;;;;4789058;29;20054;-79
2022/11/02 07:03:34;;;;;;;12.40;2.22;;;11.70;99.90;;;;;;4790354;29;20057;-78
2022/11/02 07:06:01;;;;;;;8.07;1.88;;;11.70;99.90;;;;;;4774044;29;20054;-79
2022/11/02 07:08:27;;;;;;;9.57;1.83;;;11.70;99.90;;;;;;4761734;29;20119;-79
2022/11/02 07:10:54;;;;;;;7.28;1.90;;;11.70;99.90;;;;;;4775993;29;20046;-78
2022/11/02 07:13:19;;;;;;;11.45;2.00;;;11.70;99.90;;;;;;4793320;29;20326;-79
2022/11/02 07:15:45;;;;;;;12.43;2.13;;;11.70;99.90;;;;;;4778082;29;20556;-79
2022/11/02 07:18:12;;;;;;;9.93;1.90;;;11.70;99.90;;;;;;4801819;29;20523;-78
2022/11/02 07:20:38;;;;;;;10.93;2.08;;;11.80;99.90;;;;;;4776144;29;20059;-78
2022/11/02 07:23:04;;;;;;;10.90;2.28;;;11.80;99.90;;;;;;4791159;29;20048;-78
2022/11/02 07:25:31;;;;;;;6.03;1.50;;;11.80;99.90;;;;;;4794127;29;20521;-78
2022/11/02 07:27:58;;;;;;;14.43;2.35;;;11.70;99.90;;;;;;4781122;29;20073;-78
2022/11/02 07:30:25;;;;;;;7.47;1.67;;;11.80;99.90;;;;;;4788356;29;20489;-84
2022/11/02 07:32:51;;;;;;;10.52;2.28;;;11.50;99.90;;;;;;4796217;29;20066;-78
2022/11/02 07:35:17;;;;;;;8.38;1.90;;;11.90;99.90;;;;;;4782387;29;20131;-78
2022/11/02 07:37:43;;;;;;;8.73;2.05;;;11.90;99.90;;;;;;4787683;29;20059;-78
2022/11/02 07:40:12;;;;;;;7.75;1.48;;;11.90;99.90;;;;;;4800966;29;20507;-78
2022/11/02 07:42:47;;;;;;;9.23;1.95;;;11.90;99.90;;;;;;4800112;29;20119;-78
2022/11/02 07:45:13;;;;;;;8.10;2.03;;;11.90;99.90;;;;;;4784331;29;20139;-78
2022/11/02 07:47:45;;;;;;;12.52;2.72;;;11.90;99.90;;;;;;4784465;29;20585;-78
2022/11/02 07:50:13;;;;;;;7.18;2.13;;;11.90;99.90;;;;;;4794772;29;20054;-78
2022/11/02 07:52:44;;;;;;;6.45;1.42;;;12.00;99.90;;;;;;4779038;29;20123;-78
2022/11/02 07:55:10;;;;;;;6.03;1.60;;;12.00;99.90;;;;;;4783449;29;20093;-78
2022/11/02 07:57:36;;;;;;;9.48;2.15;;;12.00;99.90;;;;;;4780649;29;20047;-78
2022/11/02 08:00:02;;;;;;;13.52;2.20;;;11.90;99.90;;;;;;4768124;29;20058;-78
2022/11/02 08:02:27;;;;;;;10.43;2.45;;;11.90;99.90;;;;;;4766243;29;20054;-78
2022/11/02 08:04:53;;;;;;;8.55;2.20;;;12.00;99.90;;;;;;4794143;29;20131;-78
2022/11/02 08:07:19;;;;;;;8.85;2.13;;;12.00;99.90;;;;;;4763957;29;20919;-78
2022/11/02 08:09:44;;;;;;;6.18;1.60;;;12.00;99.90;;;;;;4797785;29;20054;-78
2022/11/02 08:12:10;;;;;;;9.65;2.25;;;11.90;99.90;;;;;;4766074;29;20513;-78
2022/11/02 08:14:36;;;;;;;7.97;1.90;;;12.00;99.90;;;;;;4768796;29;20112;-78
2022/11/02 08:17:01;;;;;;;6.72;1.75;;;12.10;99.90;;;;;;4768001;29;20517;-78
2022/11/02 08:19:27;;;;;;;11.10;2.30;;;12.20;99.90;;;;;;4781115;29;20107;-78
2022/11/02 08:21:55;;;;;;;11.20;2.42;;;12.30;99.90;;;;;;4782481;29;20475;-78
2022/11/02 08:24:20;;;;;;;9.23;2.20;;;12.40;99.90;;;;;;4766565;29;20203;-78
2022/11/02 08:26:46;;;;;;;9.93;2.20;;;12.50;99.90;;;;;;4783979;29;20078;-78
2022/11/02 08:29:12;;;;;;;10.50;2.45;;;12.70;99.90;;;;;;4797354;29;20469;-78
2022/11/02 08:31:38;;;;;;;10.18;2.38;;;12.90;99.90;;;;;;4782031;29;20051;-78
2022/11/02 08:34:03;;;;;;;11.52;2.13;;;12.90;99.90;;;;;;4781529;29;20054;-78
2022/11/02 08:36:29;;;;;;;11.13;2.17;;;12.90;99.90;;;;;;4781777;29;20165;-78
2022/11/02 08:38:55;;;;;;;8.02;2.10;;;12.90;99.90;;;;;;4780842;29;20500;-78
2022/11/02 08:41:20;;;;;;;10.18;2.10;;;12.90;99.90;;;;;;4782848;29;20119;-78
2022/11/02 08:43:46;;;;;;;9.05;2.25;;;12.90;99.90;;;;;;4766769;29;20062;-78
2022/11/02 08:46:12;;;;;;;11.88;2.05;;;13.00;99.90;;;;;;4781481;29;20065;-78
2022/11/02 08:48:38;;;;;;;9.45;2.65;;;12.90;99.90;;;;;;4766867;29;20055;-78
2022/11/02 08:51:04;;;;;;;12.82;3.05;;;12.80;99.90;;;;;;4780247;29;20151;-81
2022/11/02 08:53:30;;;;;;;12.85;1.95;;;12.70;99.90;;;;;;4768662;29;20076;-82
2022/11/02 08:55:59;;;;;;;13.63;2.10;;;12.70;99.90;;;;;;4767967;29;21024;-78
2022/11/02 08:58:25;;;;;;;12.25;2.35;;;12.60;99.90;;;;;;4775388;29;20051;-78
2022/11/02 09:00:54;;;;;;;8.27;2.00;;;12.60;99.90;;;;;;4797622;29;20066;-77
2022/11/02 09:03:22;;;;;;;8.77;2.20;;;12.60;99.90;;;;;;4796207;29;20100;-78
2022/11/02 09:05:48;;;;;;;10.43;2.17;;;12.60;99.90;;;;;;4764408;29;20137;-78
2022/11/02 09:08:18;;;;;;;11.73;2.00;;;12.50;99.90;;;;;;4794617;29;20090;-78
2022/11/02 09:10:46;;;;;;;8.32;2.40;;;12.50;99.90;;;;;;4775693;29;20555;-81
2022/11/02 09:13:13;;;;;;;14.82;2.55;;;12.50;99.90;;;;;;4776816;29;20050;-78
2022/11/02 09:15:40;;;;;;;9.68;1.98;;;12.60;99.90;;;;;;4776827;29;20062;-78
2022/11/02 09:18:06;;;;;;;6.28;1.77;;;12.60;99.90;;;;;;4791377;29;20048;-78
2022/11/02 09:20:33;;;;;;;9.35;1.95;;;12.60;99.90;;;;;;4761938;29;20930;-78
2022/11/02 09:22:59;;;;;;;12.38;2.40;;;12.60;99.90;;;;;;4792171;29;20054;-80
2022/11/02 09:25:25;;;;;;;5.68;1.70;;;12.60;99.90;;;;;;4778778;29;20055;-81
2022/11/02 09:27:55;;;;;;;5.50;1.55;;;12.70;99.90;;;;;;4794310;29;20054;-80
2022/11/02 09:30:21;;;;;;;11.07;1.90;;;12.70;99.90;;;;;;4778784;29;20059;-80
2022/11/02 09:33:14;;;;;;;7.95;2.20;;;12.70;99.90;;;;;;4796512;29;20058;-82
2022/11/02 09:35:43;;;;;;;7.57;1.83;;;12.70;99.90;;;;;;4791669;29;20066;-80
2022/11/02 09:38:09;;;;;;;12.13;2.25;;;12.70;99.90;;;;;;4781300;29;20104;-80
2022/11/02 09:40:53;;;;;;;8.43;1.77;;;12.70;99.90;;;;;;4767423;29;20058;-80
2022/11/02 09:43:41;;;;;;;6.57;2.25;;;12.80;99.90;;;;;;4806720;29;20558;-79
2022/11/02 09:46:26;;;;;;;9.27;1.75;;;12.90;99.90;;;;;;4781885;29;20057;-79
2022/11/02 09:49:04;;;;;;;10.40;2.60;;;12.90;99.90;;;;;;4779701;29;20055;-80
2022/11/02 09:51:37;;;;;;;12.85;2.13;;;12.90;99.90;;;;;;4774396;29;20497;-81
2022/11/02 09:54:15;;;;;;;14.63;2.33;;;13.00;99.90;;;;;;4793436;29;20058;-80
2022/11/02 09:56:41;;;;;;;8.98;2.63;;;13.10;99.90;;;;;;4775348;29;20062;-80
2022/11/02 09:59:25;;;;;;;7.90;1.60;;;13.10;99.90;;;;;;4775551;29;20789;-81
2022/11/02 10:02:05;;;;;;;12.68;2.05;;;13.30;99.90;;;;;;4791236;29;20086;-80
2022/11/02 10:04:59;;;;;;;11.93;2.33;;;13.30;99.90;;;;;;4774491;29;20399;-80
2022/11/02 10:07:43;;;;;;;8.75;1.58;;;13.40;99.90;;;;;;4789225;29;20058;-81
2022/11/02 10:10:12;;;;;;;7.13;1.63;;;13.30;99.90;;;;;;4787982;29;20051;-80
2022/11/02 10:12:51;;;;;;;13.27;2.15;;;13.30;99.90;;;;;;4789607;29;20492;-80
2022/11/02 10:15:37;;;;;;;8.68;1.52;;;13.50;99.90;;;;;;4790936;29;20156;-81
2022/11/02 10:18:05;;;;;;;6.95;1.70;;;13.70;99.90;;;;;;4791638;29;20122;-81
2022/11/02 10:20:36;;;;;;;7.32;1.90;;;13.70;99.90;;;;;;4778213;29;20114;-80
2022/11/02 10:23:07;;;;;;;7.75;1.73;;;13.60;99.90;;;;;;4775498;29;20132;-81
2022/11/02 10:25:35;;;;;;;11.07;2.05;;;13.60;99.90;;;;;;4780976;29;20078;-81
2022/11/02 10:28:16;;;;;;;8.23;1.70;;;13.60;99.90;;;;;;4780522;29;20050;-80
2022/11/02 10:30:43;;;;;;;5.95;1.55;;;13.80;99.90;;;;;;4790002;29;20586;-81
2022/11/02 10:33:16;;;;;;;8.77;1.98;;;13.80;99.90;;;;;;4789134;29;20055;-81
2022/11/02 10:35:47;;;;;;;14.35;2.35;;;13.80;99.90;;;;;;4789745;29;20056;-79
2022/11/02 10:38:34;;;;;;;9.80;1.85;;;13.80;99.90;;;;;;4785737;29;20378;-80
2022/11/02 10:41:11;;;;;;;;;;;13.60;99.90;;;;;;4776655;29;20083;-80
2022/11/02 10:44:18;;;;;;;8.63;1.48;;;13.40;99.90;;;;;;4801233;29;19969;-81
2022/11/02 10:47:06;;;;;;;7.67;1.67;;;13.30;99.90;;;;;;4741427;29;20058;-80
2022/11/02 10:49:55;;;;;;;5.80;1.50;;;13.30;99.90;;;;;;4775744;29;20374;-80
2022/11/02 10:52:21;;;;;;;9.88;1.90;;;13.30;99.90;;;;;;4785674;29;21373;-80
2022/11/02 10:54:51;;;;;;;8.68;1.88;;;13.40;99.90;;;;;;4746990;29;20062;-80
2022/11/02 10:57:22;;;;;;;11.55;3.00;;;13.60;99.90;;;;;;4778698;29;20086;-80
2022/11/02 11:00:24;;;;;;;10.85;1.90;;;13.70;99.90;;;;;;4797596;29;20062;-80
2022/11/02 11:03:09;;;;;;;6.95;1.58;;;13.70;99.90;;;;;;4779044;29;20058;-81
2022/11/02 11:05:49;;;;;;;8.68;2.05;;;13.60;99.90;;;;;;4779978;29;20319;-81
2022/11/02 11:08:26;;;;;;;7.30;1.70;;;13.60;99.90;;;;;;4794010;29;20057;-81
2022/11/02 11:10:53;;;;;;;6.53;1.50;;;13.60;99.90;;;;;;4775941;29;20070;-83
2022/11/02 11:13:22;;;;;;;6.50;1.40;;;13.70;99.90;;;;;;4785465;29;20051;-82
2022/11/02 11:15:53;;;;;;;11.25;1.63;;;13.80;99.90;;;;;;4790526;29;20114;-82
2022/11/02 11:18:21;;;;;;;6.40;1.65;;;13.70;99.90;;;;;;4782728;29;21224;-81
2022/11/02 11:20:53;;;;;;;8.95;1.70;;;13.60;99.90;;;;;;4780753;29;20058;-79
2022/11/02 11:23:24;;;;;;;7.43;1.83;;;13.50;99.90;;;;;;4782026;29;20072;-80
2022/11/02 11:25:57;;;;;;;9.63;1.60;;;13.50;99.90;;;;;;4794026;29;20484;-81
2022/11/02 11:28:55;;;;;;;7.28;1.60;;;13.40;99.90;;;;;;4777624;29;20163;-81
2022/11/02 11:31:22;;;;;;;9.25;1.70;;;13.40;99.90;;;;;;4774680;29;20073;-81
2022/11/02 11:33:54;;;;;;;6.43;2.13;;;13.40;99.90;;;;;;4797500;29;20503;-80
2022/11/02 11:36:32;;;;;;;5.03;1.30;;;13.40;99.90;;;;;;4794704;29;20400;-82
2022/11/02 11:39:24;;;;;;;8.00;1.45;;;13.50;99.90;;;;;;4784973;29;20061;-82
2022/11/02 11:41:50;;;;;;;8.02;2.25;;;13.50;99.90;;;;;;4802789;29;20054;-81
2022/11/02 11:44:15;;;;;;;9.25;1.77;;;13.60;99.90;;;;;;4783570;29;20057;-81
2022/11/02 11:46:47;;;;;;;6.88;1.80;;;13.60;99.90;;;;;;4767616;29;20462;-81
2022/11/02 11:49:26;;;;;;;7.05;1.60;;;13.60;99.90;;;;;;4799240;29;20058;-81
2022/11/02 11:51:54;;;;;;;9.40;2.13;;;13.60;99.90;;;;;;4782941;29;20578;-80
2022/11/02 11:54:28;;;;;;;7.25;2.30;;;13.60;99.90;;;;;;4798608;29;20478;-81
2022/11/02 11:56:57;;;;;;;11.85;2.40;;;13.60;99.90;;;;;;4800306;29;20412;-81
2022/11/02 11:59:43;;;;;;;12.82;2.17;;;13.70;99.90;;;;;;4801626;29;20054;-82
2022/11/02 12:02:23;;;;;;;11.75;2.00;;;13.70;99.90;;;;;;4781740;29;20504;-82
2022/11/02 12:04:56;;;;;;;8.40;1.60;;;13.70;99.90;;;;;;4771036;29;20505;-79
2022/11/02 12:07:41;;;;;;;11.43;2.40;;;13.80;99.90;;;;;;4783376;29;20066;-79
2022/11/02 12:10:19;;;;;;;9.50;1.85;;;14.50;99.90;;;;;;4782438;29;20408;-79
2022/11/02 12:13:04;;;;;;;7.78;1.77;;;15.30;99.90;;;;;;4785084;29;20059;-79
2022/11/02 12:15:42;;;;;;;12.82;2.42;;;15.40;99.90;;;;;;4798135;29;20062;-79
2022/11/02 12:18:37;;;;;;;11.82;2.20;;;15.90;99.90;;;;;;4801888;29;20149;-79
2022/11/02 12:21:20;;;;;;;10.25;1.90;;;16.60;99.90;;;;;;4754648;29;20705;-79
2022/11/02 12:24:28;;;;;;;9.98;1.92;;;17.00;99.90;;;;;;4794507;29;20082;-79
2022/11/02 12:26:53;;;;;;;;;;;17.10;99.90;;;;;;4814032;29;20640;-79
2022/11/02 12:29:46;;;;;;;7.37;1.70;;;17.20;99.90;;;;;;4813186;29;19929;-80
2022/11/02 12:32:24;;;;;;;7.68;1.90;;;17.40;99.90;;;;;;4784292;29;20067;-80
2022/11/02 12:35:05;;;;;;;11.88;1.92;;;17.70;99.90;;;;;;4786978;29;20061;-79
2022/11/02 12:38:04;;;;;;;6.28;1.52;;;18.10;99.90;;;;;;4797036;29;20058;-80
2022/11/02 12:40:49;;;;;;;9.15;2.78;;;18.10;99.90;;;;;;4800900;29;20050;-79
2022/11/02 12:43:42;;;;;;;7.45;1.50;;;18.00;99.90;;;;;;4796913;29;20061;-78
2022/11/02 12:46:27;;;;;;;8.23;1.95;;;18.00;99.90;;;;;;4774334;29;20066;-79
2022/11/02 12:49:06;;;;;;;7.53;1.77;;;18.20;99.90;;;;;;4788535;29;20414;-80
2022/11/02 12:51:48;;;;;;;11.75;2.30;;;18.10;99.90;;;;;;4797110;29;20091;-80
2022/11/02 12:54:34;;;;;;;7.53;1.67;;;18.10;99.90;;;;;;4786001;29;20135;-79
2022/11/02 12:56:59;;;;;;;10.18;1.98;;;18.10;99.90;;;;;;4798538;29;20898;-79
2022/11/02 12:59:29;;;;;;;10.50;1.88;;;17.90;99.90;;;;;;4779329;29;20058;-87
2022/11/02 13:02:20;;;;;;;8.95;1.88;;;17.80;99.90;;;;;;4795259;29;20400;-79
2022/11/02 13:04:55;;;;;;;7.72;2.15;;;17.70;99.90;;;;;;4781955;29;20050;-80
2022/11/02 13:08:02;;;;;;;7.63;1.55;;;17.60;99.90;;;;;;4800528;29;20050;-80
2022/11/02 13:10:31;;;;;;;;;;;17.40;99.90;;;;;;4784297;29;20050;-80
2022/11/02 13:13:00;;;;;;;10.30;2.30;;;17.20;99.90;;;;;;4785750;29;19981;-79
2022/11/02 13:15:28;;;;;;;9.60;1.92;;;17.20;99.90;;;;;;4783808;29;20066;-80
2022/11/02 13:18:04;;;;;;;8.27;1.88;;;16.90;99.90;;;;;;4781231;29;20066;-79
2022/11/02 13:20:54;;;;;;;8.45;2.17;;;16.40;99.90;;;;;;4796040;29;20069;-79
2022/11/02 13:23:43;;;;;;;7.15;2.00;;;16.00;99.90;;;;;;4781649;29;20081;-80